Groznyj, Russia
Current Conditions -  °F | °C
As of 4:30 PM on Sunday 25 Jan 2015 (Local Time) from URMO Reporting Station
Overcast Overcast  
Wind Chill: 32°   Ceiling: 1800
Heat Index: 32°   Visibility: 6mi
Dew Point: 25°   Wind: 2mph
Humidity: 75%   Direction: NA
Pressure: 30.21"   Gusts: NA
Location:  43.31°N, 45.7°E
Report Text: URMO 251330Z VRB01MPS 9999 BKN018 OVC083 M00/M04 Q1023 NOSIGRMK QFE723/0964 SC070
Loading
Personal Weather Stations






























Interactive Weather Map New forecast layout! Learn more

10-Day Weather Forecast

Advertisements
Track Severe Weather on mobile